sensor_id;sensor_type;location;lat;lon;timestamp;pressure;altitude;pressure_sealevel;temperature;humidity
30897;BME280;64229;52.246;21.054;2023-03-14T00:00:53;98943.31;;;9.92;70.91
30897;BME280;64229;52.246;21.054;2023-03-14T00:03:18;98948.84;;;9.95;71.01
30897;BME280;64229;52.246;21.054;2023-03-14T00:05:44;98951.09;;;9.88;71.30
30897;BME280;64229;52.246;21.054;2023-03-14T00:08:09;98942.47;;;9.77;71.35
30897;BME280;64229;52.246;21.054;2023-03-14T00:10:36;98947.53;;;9.79;71.72
30897;BME280;64229;52.246;21.054;2023-03-14T00:13:01;98951.63;;;9.90;71.58
30897;BME280;64229;52.246;21.054;2023-03-14T00:15:27;98944.88;;;9.79;71.60
30897;BME280;64229;52.246;21.054;2023-03-14T00:17:52;98945.66;;;9.79;71.44
30897;BME280;64229;52.246;21.054;2023-03-14T00:20:17;98947.03;;;9.77;71.59
30897;BME280;64229;52.246;21.054;2023-03-14T00:22:43;98942.78;;;9.76;71.74
30897;BME280;64229;52.246;21.054;2023-03-14T00:25:10;98942.22;;;9.79;71.89
30897;BME280;64229;52.246;21.054;2023-03-14T00:27:36;98929.72;;;9.61;72.21
30897;BME280;64229;52.246;21.054;2023-03-14T00:30:02;98940.38;;;9.61;72.28
30897;BME280;64229;52.246;21.054;2023-03-14T00:32:28;98938.00;;;9.59;72.51
30897;BME280;64229;52.246;21.054;2023-03-14T00:34:54;98936.56;;;9.48;72.70
30897;BME280;64229;52.246;21.054;2023-03-14T00:37:19;98926.00;;;9.43;72.93
30897;BME280;64229;52.246;21.054;2023-03-14T00:39:44;98926.22;;;9.46;72.81
30897;BME280;64229;52.246;21.054;2023-03-14T00:42:10;98912.66;;;9.43;73.01
30897;BME280;64229;52.246;21.054;2023-03-14T00:44:35;98913.09;;;9.50;72.56
30897;BME280;64229;52.246;21.054;2023-03-14T00:47:01;98905.56;;;9.38;72.83
30897;BME280;64229;52.246;21.054;2023-03-14T00:49:26;98891.97;;;9.40;72.99
30897;BME280;64229;52.246;21.054;2023-03-14T00:51:52;98902.47;;;9.31;73.18
30897;BME280;64229;52.246;21.054;2023-03-14T00:54:19;98884.47;;;9.23;73.55
30897;BME280;64229;52.246;21.054;2023-03-14T00:56:45;98886.00;;;9.10;73.81
30897;BME280;64229;52.246;21.054;2023-03-14T00:59:10;98867.38;;;9.10;73.67
30897;BME280;64229;52.246;21.054;2023-03-14T01:01:36;98887.81;;;9.15;73.70
30897;BME280;64229;52.246;21.054;2023-03-14T01:04:01;98871.41;;;9.08;73.83
30897;BME280;64229;52.246;21.054;2023-03-14T01:06:28;98863.72;;;9.06;73.69
30897;BME280;64229;52.246;21.054;2023-03-14T01:08:54;98869.19;;;8.96;74.00
30897;BME280;64229;52.246;21.054;2023-03-14T01:11:23;98864.72;;;8.91;73.87
30897;BME280;64229;52.246;21.054;2023-03-14T01:13:49;98857.16;;;8.80;74.01
30897;BME280;64229;52.246;21.054;2023-03-14T01:16:15;98848.41;;;8.79;74.29
30897;BME280;64229;52.246;21.054;2023-03-14T01:18:43;98854.16;;;8.86;73.90
30897;BME280;64229;52.246;21.054;2023-03-14T01:21:18;98863.72;;;8.87;73.80
30897;BME280;64229;52.246;21.054;2023-03-14T01:23:44;98854.47;;;8.85;73.52
30897;BME280;64229;52.246;21.054;2023-03-14T01:26:15;98856.63;;;8.83;73.53
30897;BME280;64229;52.246;21.054;2023-03-14T01:28:41;98852.94;;;8.79;73.00
30897;BME280;64229;52.246;21.054;2023-03-14T01:31:08;98856.63;;;8.83;72.65
30897;BME280;64229;52.246;21.054;2023-03-14T01:33:35;98854.00;;;8.78;72.87
30897;BME280;64229;52.246;21.054;2023-03-14T01:36:01;98855.88;;;8.77;72.47
30897;BME280;64229;52.246;21.054;2023-03-14T01:38:30;98860.47;;;8.72;72.59
30897;BME280;64229;52.246;21.054;2023-03-14T01:40:56;98834.09;;;8.56;72.75
30897;BME280;64229;52.246;21.054;2023-03-14T01:43:22;98848.53;;;8.69;72.73
30897;BME280;64229;52.246;21.054;2023-03-14T01:46:20;98856.81;;;8.67;72.79
30897;BME280;64229;52.246;21.054;2023-03-14T01:49:17;98833.00;;;8.57;72.63
30897;BME280;64229;52.246;21.054;2023-03-14T01:51:55;98844.50;;;8.72;72.48
30897;BME280;64229;52.246;21.054;2023-03-14T01:54:40;98855.16;;;8.72;72.51
30897;BME280;64229;52.246;21.054;2023-03-14T01:59:37;98844.59;;;8.66;72.28
30897;BME280;64229;52.246;21.054;2023-03-14T02:02:04;98851.50;;;8.67;72.14
30897;BME280;64229;52.246;21.054;2023-03-14T02:04:34;98827.34;;;8.64;72.26
30897;BME280;64229;52.246;21.054;2023-03-14T02:07:26;98841.00;;;8.57;72.50
30897;BME280;64229;52.246;21.054;2023-03-14T02:09:50;98834.59;;;8.58;72.53
30897;BME280;64229;52.246;21.054;2023-03-14T02:12:17;98830.44;;;8.52;72.64
30897;BME280;64229;52.246;21.054;2023-03-14T02:14:43;98828.63;;;8.48;72.77
30897;BME280;64229;52.246;21.054;2023-03-14T02:17:13;98819.84;;;8.47;72.56
30897;BME280;64229;52.246;21.054;2023-03-14T02:22:12;98817.56;;;8.40;72.64
30897;BME280;64229;52.246;21.054;2023-03-14T02:24:46;98825.00;;;8.38;72.90
30897;BME280;64229;52.246;21.054;2023-03-14T02:27:18;98830.66;;;8.32;72.87
30897;BME280;64229;52.246;21.054;2023-03-14T02:32:17;98808.31;;;8.33;72.77
30897;BME280;64229;52.246;21.054;2023-03-14T02:34:49;98800.63;;;8.31;72.53
30897;BME280;64229;52.246;21.054;2023-03-14T02:37:17;98795.66;;;8.25;72.58
30897;BME280;64229;52.246;21.054;2023-03-14T02:39:45;98780.28;;;8.22;72.58
30897;BME280;64229;52.246;21.054;2023-03-14T02:42:12;98778.34;;;8.08;72.85
30897;BME280;64229;52.246;21.054;2023-03-14T02:45:01;98767.69;;;8.08;72.84
30897;BME280;64229;52.246;21.054;2023-03-14T02:47:49;98756.34;;;8.03;72.69
30897;BME280;64229;52.246;21.054;2023-03-14T02:50:22;98755.59;;;7.97;72.53
30897;BME280;64229;52.246;21.054;2023-03-14T02:52:50;98767.88;;;7.93;72.83
30897;BME280;64229;52.246;21.054;2023-03-14T02:55:20;98767.47;;;8.05;72.30
30897;BME280;64229;52.246;21.054;2023-03-14T02:57:46;98746.50;;;8.03;71.85
30897;BME280;64229;52.246;21.054;2023-03-14T03:00:11;98752.88;;;8.02;71.96
30897;BME280;64229;52.246;21.054;2023-03-14T03:02:37;98769.63;;;8.03;72.09
30897;BME280;64229;52.246;21.054;2023-03-14T03:05:02;98748.19;;;7.94;72.44
30897;BME280;64229;52.246;21.054;2023-03-14T03:07:28;98749.47;;;7.78;72.94
30897;BME280;64229;52.246;21.054;2023-03-14T03:09:53;98751.72;;;7.66;73.69
30897;BME280;64229;52.246;21.054;2023-03-14T03:12:19;98746.69;;;7.64;73.66
30897;BME280;64229;52.246;21.054;2023-03-14T03:14:44;98749.13;;;7.61;73.90
30897;BME280;64229;52.246;21.054;2023-03-14T03:17:09;98757.09;;;7.61;74.02
30897;BME280;64229;52.246;21.054;2023-03-14T03:19:35;98758.72;;;7.57;74.08
30897;BME280;64229;52.246;21.054;2023-03-14T03:22:00;98757.25;;;7.45;74.37
30897;BME280;64229;52.246;21.054;2023-03-14T03:24:26;98763.50;;;7.31;74.93
30897;BME280;64229;52.246;21.054;2023-03-14T03:26:52;98755.31;;;7.27;75.18
30897;BME280;64229;52.246;21.054;2023-03-14T03:29:18;98746.16;;;7.14;75.44
30897;BME280;64229;52.246;21.054;2023-03-14T03:31:44;98757.34;;;7.06;75.68
30897;BME280;64229;52.246;21.054;2023-03-14T03:34:11;98758.63;;;7.14;75.75
30897;BME280;64229;52.246;21.054;2023-03-14T03:36:37;98756.47;;;7.16;75.54
30897;BME280;64229;52.246;21.054;2023-03-14T03:39:02;98740.06;;;7.09;75.95
30897;BME280;64229;52.246;21.054;2023-03-14T03:41:29;98760.31;;;7.00;76.43
30897;BME280;64229;52.246;21.054;2023-03-14T03:43:54;98751.13;;;6.92;76.87
30897;BME280;64229;52.246;21.054;2023-03-14T03:46:20;98752.91;;;6.96;76.91
30897;BME280;64229;52.246;21.054;2023-03-14T03:48:45;98750.06;;;6.88;76.79
30897;BME280;64229;52.246;21.054;2023-03-14T03:51:13;98744.09;;;6.72;77.08
30897;BME280;64229;52.246;21.054;2023-03-14T03:53:39;98754.72;;;6.72;77.69
30897;BME280;64229;52.246;21.054;2023-03-14T03:56:05;98745.41;;;6.70;77.62
30897;BME280;64229;52.246;21.054;2023-03-14T03:58:30;98741.97;;;6.69;77.67
30897;BME280;64229;52.246;21.054;2023-03-14T04:00:56;98747.91;;;6.61;77.93
30897;BME280;64229;52.246;21.054;2023-03-14T04:03:21;98744.19;;;6.62;77.98
30897;BME280;64229;52.246;21.054;2023-03-14T04:05:57;98754.78;;;6.57;77.75
30897;BME280;64229;52.246;21.054;2023-03-14T04:08:23;98757.38;;;6.67;77.59
30897;BME280;64229;52.246;21.054;2023-03-14T04:10:48;98749.44;;;6.67;77.44
30897;BME280;64229;52.246;21.054;2023-03-14T04:13:14;98756.59;;;6.66;77.61
30897;BME280;64229;52.246;21.054;2023-03-14T04:15:39;98753.47;;;6.59;77.63
30897;BME280;64229;52.246;21.054;2023-03-14T04:18:04;98761.75;;;6.48;78.17
30897;BME280;64229;52.246;21.054;2023-03-14T04:20:30;98767.53;;;6.55;77.86
30897;BME280;64229;52.246;21.054;2023-03-14T04:22:55;98758.59;;;6.46;77.88
30897;BME280;64229;52.246;21.054;2023-03-14T04:25:21;98746.91;;;6.47;78.07
30897;BME280;64229;52.246;21.054;2023-03-14T04:27:47;98737.38;;;6.46;78.10
30897;BME280;64229;52.246;21.054;2023-03-14T04:30:12;98737.72;;;6.39;78.24
30897;BME280;64229;52.246;21.054;2023-03-14T04:32:39;98749.63;;;6.36;78.29
30897;BME280;64229;52.246;21.054;2023-03-14T04:35:04;98742.28;;;6.28;78.47
30897;BME280;64229;52.246;21.054;2023-03-14T04:37:30;98755.94;;;6.46;78.23
30897;BME280;64229;52.246;21.054;2023-03-14T04:39:55;98754.91;;;6.36;78.34
30897;BME280;64229;52.246;21.054;2023-03-14T04:42:21;98753.34;;;6.35;78.66
30897;BME280;64229;52.246;21.054;2023-03-14T04:44:46;98748.53;;;6.43;78.33
30897;BME280;64229;52.246;21.054;2023-03-14T04:47:14;98750.41;;;6.37;78.25
30897;BME280;64229;52.246;21.054;2023-03-14T04:49:39;98732.66;;;6.37;78.31
30897;BME280;64229;52.246;21.054;2023-03-14T04:52:05;98727.63;;;6.36;78.20
30897;BME280;64229;52.246;21.054;2023-03-14T04:54:30;98717.56;;;6.38;78.04
30897;BME280;64229;52.246;21.054;2023-03-14T04:56:56;98715.16;;;6.36;77.94
30897;BME280;64229;52.246;21.054;2023-03-14T04:59:21;98706.66;;;6.45;77.46
30897;BME280;64229;52.246;21.054;2023-03-14T05:01:46;98701.56;;;6.48;77.40
30897;BME280;64229;52.246;21.054;2023-03-14T05:04:13;98703.50;;;6.37;77.64
30897;BME280;64229;52.246;21.054;2023-03-14T05:06:39;98694.81;;;6.32;77.97
30897;BME280;64229;52.246;21.054;2023-03-14T05:09:04;98702.72;;;6.37;77.56
30897;BME280;64229;52.246;21.054;2023-03-14T05:11:30;98700.56;;;6.44;77.62
30897;BME280;64229;52.246;21.054;2023-03-14T05:13:55;98694.75;;;6.42;77.29
30897;BME280;64229;52.246;21.054;2023-03-14T05:16:21;98686.56;;;6.38;77.68
30897;BME280;64229;52.246;21.054;2023-03-14T05:18:46;98680.50;;;6.33;77.91
30897;BME280;64229;52.246;21.054;2023-03-14T05:21:13;98669.09;;;6.32;78.02
30897;BME280;64229;52.246;21.054;2023-03-14T05:23:38;98676.03;;;6.28;77.86
30897;BME280;64229;52.246;21.054;2023-03-14T05:26:04;98675.97;;;6.33;77.96
30897;BME280;64229;52.246;21.054;2023-03-14T05:28:29;98663.53;;;6.34;77.65
30897;BME280;64229;52.246;21.054;2023-03-14T05:30:55;98684.09;;;6.47;77.78
30897;BME280;64229;52.246;21.054;2023-03-14T05:33:20;98683.72;;;6.59;76.63
30897;BME280;64229;52.246;21.054;2023-03-14T05:35:46;98682.94;;;6.58;76.56
30897;BME280;64229;52.246;21.054;2023-03-14T05:38:11;98675.53;;;6.60;76.04
30897;BME280;64229;52.246;21.054;2023-03-14T05:40:36;98674.69;;;6.65;76.08
30897;BME280;64229;52.246;21.054;2023-03-14T05:43:02;98653.97;;;6.72;75.56
30897;BME280;64229;52.246;21.054;2023-03-14T05:45:27;98647.31;;;6.70;75.47
30897;BME280;64229;52.246;21.054;2023-03-14T05:47:53;98647.56;;;6.73;75.23
30897;BME280;64229;52.246;21.054;2023-03-14T05:50:18;98634.22;;;6.83;74.55
30897;BME280;64229;52.246;21.054;2023-03-14T05:52:43;98619.94;;;6.79;74.44
30897;BME280;64229;52.246;21.054;2023-03-14T05:55:09;98628.25;;;6.96;74.33
30897;BME280;64229;52.246;21.054;2023-03-14T05:57:34;98627.69;;;7.00;73.83
30897;BME280;64229;52.246;21.054;2023-03-14T06:00:00;98630.31;;;7.05;74.12
30897;BME280;64229;52.246;21.054;2023-03-14T06:02:25;98611.94;;;7.08;73.55
30897;BME280;64229;52.246;21.054;2023-03-14T06:04:51;98608.69;;;7.16;73.03
30897;BME280;64229;52.246;21.054;2023-03-14T06:07:17;98601.50;;;7.17;72.85
30897;BME280;64229;52.246;21.054;2023-03-14T06:09:42;98610.63;;;7.30;72.69
30897;BME280;64229;52.246;21.054;2023-03-14T06:12:08;98614.13;;;7.49;72.32
30897;BME280;64229;52.246;21.054;2023-03-14T06:14:33;98608.97;;;7.58;71.57
30897;BME280;64229;52.246;21.054;2023-03-14T06:16:58;98591.69;;;7.60;71.72
30897;BME280;64229;52.246;21.054;2023-03-14T06:19:25;98613.13;;;7.64;71.65
30897;BME280;64229;52.246;21.054;2023-03-14T06:21:51;98603.56;;;7.44;72.05
30897;BME280;64229;52.246;21.054;2023-03-14T06:24:16;98609.56;;;7.31;72.68
30897;BME280;64229;52.246;21.054;2023-03-14T06:26:42;98579.88;;;7.29;73.01
30897;BME280;64229;52.246;21.054;2023-03-14T06:29:07;98597.13;;;7.50;72.17
30897;BME280;64229;52.246;21.054;2023-03-14T06:31:33;98596.84;;;7.51;71.98
30897;BME280;64229;52.246;21.054;2023-03-14T06:33:58;98592.91;;;7.68;70.97
30897;BME280;64229;52.246;21.054;2023-03-14T06:36:24;98602.16;;;7.70;70.78
30897;BME280;64229;52.246;21.054;2023-03-14T06:38:49;98603.41;;;7.78;70.79
30897;BME280;64229;52.246;21.054;2023-03-14T06:41:15;98594.56;;;7.82;70.42
30897;BME280;64229;52.246;21.054;2023-03-14T06:43:40;98602.19;;;7.89;70.35
30897;BME280;64229;52.246;21.054;2023-03-14T06:46:06;98599.53;;;7.89;70.69
30897;BME280;64229;52.246;21.054;2023-03-14T06:48:31;98593.97;;;7.86;70.78
30897;BME280;64229;52.246;21.054;2023-03-14T06:50:57;98592.53;;;7.93;70.73
30897;BME280;64229;52.246;21.054;2023-03-14T06:53:22;98589.44;;;8.05;70.56
30897;BME280;64229;52.246;21.054;2023-03-14T06:55:48;98579.38;;;8.21;69.97
30897;BME280;64229;52.246;21.054;2023-03-14T06:58:13;98586.16;;;8.46;69.31
30897;BME280;64229;52.246;21.054;2023-03-14T07:00:39;98597.91;;;8.58;68.59
30897;BME280;64229;52.246;21.054;2023-03-14T07:03:04;98595.38;;;8.81;68.22
30897;BME280;64229;52.246;21.054;2023-03-14T07:05:30;98587.63;;;8.98;67.84
30897;BME280;64229;52.246;21.054;2023-03-14T07:07:55;98576.16;;;9.25;66.60
30897;BME280;64229;52.246;21.054;2023-03-14T07:10:21;98583.84;;;9.54;65.36
30897;BME280;64229;52.246;21.054;2023-03-14T07:12:46;98586.75;;;9.66;64.68
30897;BME280;64229;52.246;21.054;2023-03-14T07:15:12;98617.38;;;9.69;65.35
30897;BME280;64229;52.246;21.054;2023-03-14T07:17:37;98612.00;;;9.82;64.43
30897;BME280;64229;52.246;21.054;2023-03-14T07:20:03;98619.16;;;9.96;63.93
30897;BME280;64229;52.246;21.054;2023-03-14T07:22:32;98624.94;;;10.11;62.88
30897;BME280;64229;52.246;21.054;2023-03-14T07:24:57;98610.81;;;10.25;62.51
30897;BME280;64229;52.246;21.054;2023-03-14T07:27:23;98620.59;;;10.38;62.35
30897;BME280;64229;52.246;21.054;2023-03-14T07:29:48;98623.16;;;10.43;62.18
30897;BME280;64229;52.246;21.054;2023-03-14T07:32:14;98618.97;;;10.51;62.16
30897;BME280;64229;52.246;21.054;2023-03-14T07:34:42;98631.94;;;10.66;61.83
30897;BME280;64229;52.246;21.054;2023-03-14T07:37:08;98625.09;;;10.82;61.57
30897;BME280;64229;52.246;21.054;2023-03-14T07:39:33;98597.78;;;10.77;61.75
30897;BME280;64229;52.246;21.054;2023-03-14T07:41:59;98610.78;;;11.09;59.57
30897;BME280;64229;52.246;21.054;2023-03-14T07:44:25;98622.78;;;11.20;59.38
30897;BME280;64229;52.246;21.054;2023-03-14T07:46:50;98632.06;;;11.32;58.49
30897;BME280;64229;52.246;21.054;2023-03-14T07:49:15;98618.09;;;11.35;58.63
30897;BME280;64229;52.246;21.054;2023-03-14T07:51:41;98610.94;;;11.61;57.78
30897;BME280;64229;52.246;21.054;2023-03-14T07:54:08;98608.16;;;11.83;57.40
30897;BME280;64229;52.246;21.054;2023-03-14T07:56:34;98607.06;;;11.93;57.31
30897;BME280;64229;52.246;21.054;2023-03-14T07:58:59;98610.69;;;12.06;56.83
30897;BME280;64229;52.246;21.054;2023-03-14T08:01:25;98605.97;;;12.20;56.69
30897;BME280;64229;52.246;21.054;2023-03-14T08:03:50;98606.56;;;12.43;56.02
30897;BME280;64229;52.246;21.054;2023-03-14T08:06:15;98599.78;;;12.54;55.39
30897;BME280;64229;52.246;21.054;2023-03-14T08:08:41;98606.34;;;12.74;54.94
30897;BME280;64229;52.246;21.054;2023-03-14T08:11:07;98612.97;;;12.68;54.73
30897;BME280;64229;52.246;21.054;2023-03-14T08:13:37;98602.88;;;12.73;54.28
30897;BME280;64229;52.246;21.054;2023-03-14T08:16:03;98609.84;;;13.04;53.80
30897;BME280;64229;52.246;21.054;2023-03-14T08:18:29;98615.78;;;13.18;53.43
30897;BME280;64229;52.246;21.054;2023-03-14T08:20:54;98625.13;;;13.21;53.03
30897;BME280;64229;52.246;21.054;2023-03-14T08:23:19;98617.84;;;13.30;52.97
30897;BME280;64229;52.246;21.054;2023-03-14T08:25:45;98614.03;;;13.31;53.20
30897;BME280;64229;52.246;21.054;2023-03-14T08:28:13;98614.63;;;13.37;52.90
30897;BME280;64229;52.246;21.054;2023-03-14T08:30:38;98618.91;;;13.29;53.05
30897;BME280;64229;52.246;21.054;2023-03-14T08:33:03;98611.13;;;13.45;52.68
30897;BME280;64229;52.246;21.054;2023-03-14T08:35:29;98612.22;;;13.73;52.72
30897;BME280;64229;52.246;21.054;2023-03-14T08:37:54;98628.81;;;14.50;50.68
30897;BME280;64229;52.246;21.054;2023-03-14T08:40:20;98636.13;;;15.31;47.91
30897;BME280;64229;52.246;21.054;2023-03-14T08:42:46;98630.19;;;15.62;46.95
30897;BME280;64229;52.246;21.054;2023-03-14T08:45:13;98625.38;;;15.19;47.88
30897;BME280;64229;52.246;21.054;2023-03-14T08:47:39;98627.97;;;14.70;49.55
30897;BME280;64229;52.246;21.054;2023-03-14T08:50:06;98633.47;;;14.20;49.92
30897;BME280;64229;52.246;21.054;2023-03-14T08:52:32;98616.47;;;14.16;49.57
30897;BME280;64229;52.246;21.054;2023-03-14T08:54:58;98610.84;;;14.42;50.11
30897;BME280;64229;52.246;21.054;2023-03-14T08:57:24;98616.84;;;14.93;48.85
30897;BME280;64229;52.246;21.054;2023-03-14T08:59:56;98618.00;;;15.65;47.37
30897;BME280;64229;52.246;21.054;2023-03-14T09:02:23;98613.34;;;14.68;49.36
30897;BME280;64229;52.246;21.054;2023-03-14T09:04:52;98611.38;;;15.01;48.20
30897;BME280;64229;52.246;21.054;2023-03-14T09:07:19;98613.50;;;15.20;47.82
30897;BME280;64229;52.246;21.054;2023-03-14T09:09:44;98616.19;;;15.69;46.94
30897;BME280;64229;52.246;21.054;2023-03-14T09:12:10;98604.22;;;15.67;46.58
30897;BME280;64229;52.246;21.054;2023-03-14T09:14:36;98607.13;;;15.61;46.78
30897;BME280;64229;52.246;21.054;2023-03-14T09:17:02;98599.69;;;15.83;46.56
30897;BME280;64229;52.246;21.054;2023-03-14T09:19:28;98592.03;;;15.97;45.92
30897;BME280;64229;52.246;21.054;2023-03-14T09:21:54;98587.78;;;15.96;46.63
30897;BME280;64229;52.246;21.054;2023-03-14T09:24:20;98587.88;;;15.23;47.79
30897;BME280;64229;52.246;21.054;2023-03-14T09:26:45;98588.75;;;14.90;49.11
30897;BME280;64229;52.246;21.054;2023-03-14T09:29:11;98580.31;;;14.67;49.61
30897;BME280;64229;52.246;21.054;2023-03-14T09:31:36;98574.72;;;14.72;49.53
30897;BME280;64229;52.246;21.054;2023-03-14T09:34:02;98575.44;;;14.15;50.89
30897;BME280;64229;52.246;21.054;2023-03-14T09:36:27;98569.06;;;14.20;51.15
30897;BME280;64229;52.246;21.054;2023-03-14T09:38:52;98557.94;;;14.30;50.92
30897;BME280;64229;52.246;21.054;2023-03-14T09:41:34;98560.06;;;14.70;49.97
30897;BME280;64229;52.246;21.054;2023-03-14T09:46:48;98549.56;;;15.14;49.58
30897;BME280;64229;52.246;21.054;2023-03-14T09:49:33;98542.91;;;15.48;47.69
30897;BME280;64229;52.246;21.054;2023-03-14T09:52:01;98542.84;;;15.32;47.77
30897;BME280;64229;52.246;21.054;2023-03-14T09:57:13;98529.72;;;15.30;47.58
30897;BME280;64229;52.246;21.054;2023-03-14T09:59:40;98527.22;;;15.50;47.24
30897;BME280;64229;52.246;21.054;2023-03-14T10:02:15;98517.69;;;15.00;48.09
30897;BME280;64229;52.246;21.054;2023-03-14T10:04:42;98517.88;;;15.07;48.62
30897;BME280;64229;52.246;21.054;2023-03-14T10:07:31;98526.50;;;14.88;48.50
30897;BME280;64229;52.246;21.054;2023-03-14T10:09:57;98514.59;;;15.38;47.89
30897;BME280;64229;52.246;21.054;2023-03-14T10:12:34;98514.53;;;15.22;47.50
30897;BME280;64229;52.246;21.054;2023-03-14T10:15:07;98517.41;;;15.29;47.81
30897;BME280;64229;52.246;21.054;2023-03-14T10:17:46;98521.78;;;15.10;48.20
30897;BME280;64229;52.246;21.054;2023-03-14T10:20:37;98521.13;;;15.25;48.33
30897;BME280;64229;52.246;21.054;2023-03-14T10:25:46;98517.22;;;15.10;48.26
30897;BME280;64229;52.246;21.054;2023-03-14T10:28:24;98519.13;;;14.73;49.24
30897;BME280;64229;52.246;21.054;2023-03-14T10:30:50;98529.84;;;14.73;49.35
30897;BME280;64229;52.246;21.054;2023-03-14T10:35:44;98515.06;;;14.67;49.65
30897;BME280;64229;52.246;21.054;2023-03-14T10:38:15;98515.22;;;14.83;49.73
30897;BME280;64229;52.246;21.054;2023-03-14T10:40:47;98515.66;;;14.97;49.26
30897;BME280;64229;52.246;21.054;2023-03-14T10:43:21;98517.66;;;14.75;49.72
30897;BME280;64229;52.246;21.054;2023-03-14T10:45:59;98502.09;;;14.57;49.92
30897;BME280;64229;52.246;21.054;2023-03-14T10:48:33;98500.75;;;14.87;49.71
30897;BME280;64229;52.246;21.054;2023-03-14T10:51:10;98504.00;;;15.05;49.48
30897;BME280;64229;52.246;21.054;2023-03-14T10:53:56;98486.09;;;15.09;49.10
30897;BME280;64229;52.246;21.054;2023-03-14T10:56:23;98491.16;;;14.74;49.49
30897;BME280;64229;52.246;21.054;2023-03-14T10:58:51;98491.91;;;14.99;49.32
30897;BME280;64229;52.246;21.054;2023-03-14T11:04:38;98502.56;;;14.59;50.40
30897;BME280;64229;52.246;21.054;2023-03-14T11:07:16;98502.00;;;14.77;49.98
30897;BME280;64229;52.246;21.054;2023-03-14T11:09:53;98507.50;;;14.93;49.96
30897;BME280;64229;52.246;21.054;2023-03-14T11:12:45;98498.75;;;14.84;49.86
30897;BME280;64229;52.246;21.054;2023-03-14T11:20:55;98514.53;;;14.73;50.50
30897;BME280;64229;52.246;21.054;2023-03-14T11:23:41;98521.13;;;14.76;49.91
30897;BME280;64229;52.246;21.054;2023-03-14T11:26:41;98506.59;;;14.89;49.65
30897;BME280;64229;52.246;21.054;2023-03-14T11:29:20;98524.94;;;14.63;50.42
30897;BME280;64229;52.246;21.054;2023-03-14T11:31:47;98523.75;;;14.39;50.77
30897;BME280;64229;52.246;21.054;2023-03-14T11:34:28;98526.50;;;14.64;50.60
30897;BME280;64229;52.246;21.054;2023-03-14T11:39:37;98518.41;;;14.06;51.52
30897;BME280;64229;52.246;21.054;2023-03-14T11:42:04;98510.31;;;13.94;51.85
30897;BME280;64229;52.246;21.054;2023-03-14T11:44:36;98499.41;;;13.78;52.66
30897;BME280;64229;52.246;21.054;2023-03-14T11:47:06;98499.81;;;14.01;51.91
30897;BME280;64229;52.246;21.054;2023-03-14T11:52:20;98495.16;;;14.10;51.94
30897;BME280;64229;52.246;21.054;2023-03-14T11:54:53;98501.25;;;13.99;51.97
30897;BME280;64229;52.246;21.054;2023-03-14T11:57:21;98504.41;;;14.01;52.05
30897;BME280;64229;52.246;21.054;2023-03-14T11:59:51;98518.69;;;14.26;51.93
30897;BME280;64229;52.246;21.054;2023-03-14T12:10:26;98509.78;;;14.13;53.15
30897;BME280;64229;52.246;21.054;2023-03-14T12:12:52;98506.16;;;14.30;52.51
30897;BME280;64229;52.246;21.054;2023-03-14T12:15:20;98494.84;;;14.69;52.13
30897;BME280;64229;52.246;21.054;2023-03-14T12:17:46;98490.47;;;15.14;50.62
30897;BME280;64229;52.246;21.054;2023-03-14T12:20:20;98494.63;;;15.11;50.31
30897;BME280;64229;52.246;21.054;2023-03-14T12:27:44;98512.41;;;14.79;51.49
30897;BME280;64229;52.246;21.054;2023-03-14T12:30:18;98505.69;;;14.49;52.19
30897;BME280;64229;52.246;21.054;2023-03-14T12:36:01;98508.84;;;14.30;53.25
30897;BME280;64229;52.246;21.054;2023-03-14T12:43:46;98506.38;;;13.92;54.38
30897;BME280;64229;52.246;21.054;2023-03-14T12:48:54;98504.28;;;13.97;54.72
30897;BME280;64229;52.246;21.054;2023-03-14T12:51:29;98504.28;;;13.97;55.03
30897;BME280;64229;52.246;21.054;2023-03-14T12:54:10;98519.38;;;14.02;55.06
30897;BME280;64229;52.246;21.054;2023-03-14T12:59:36;98529.03;;;13.61;57.26
30897;BME280;64229;52.246;21.054;2023-03-14T13:04:43;98526.50;;;13.06;59.93
30897;BME280;64229;52.246;21.054;2023-03-14T13:07:30;98528.78;;;12.95;61.27
30897;BME280;64229;52.246;21.054;2023-03-14T13:12:30;98553.84;;;12.90;64.13
30897;BME280;64229;52.246;21.054;2023-03-14T13:15:00;98544.56;;;12.88;65.62
30897;BME280;64229;52.246;21.054;2023-03-14T13:17:32;98535.94;;;12.82;67.31
30897;BME280;64229;52.246;21.054;2023-03-14T13:20:03;98549.09;;;12.58;67.34
30897;BME280;64229;52.246;21.054;2023-03-14T13:22:33;98554.66;;;12.27;69.13
30897;BME280;64229;52.246;21.054;2023-03-14T13:25:06;98545.28;;;12.03;71.34
30897;BME280;64229;52.246;21.054;2023-03-14T13:27:34;98551.88;;;12.14;72.30
30897;BME280;64229;52.246;21.054;2023-03-14T13:30:12;98557.22;;;11.97;73.13
30897;BME280;64229;52.246;21.054;2023-03-14T13:32:42;98553.59;;;11.93;72.90
30897;BME280;64229;52.246;21.054;2023-03-14T13:37:41;98551.06;;;11.71;74.71
30897;BME280;64229;52.246;21.054;2023-03-14T13:40:18;98553.72;;;11.62;74.44
30897;BME280;64229;52.246;21.054;2023-03-14T13:42:44;98559.84;;;11.63;74.89
30897;BME280;64229;52.246;21.054;2023-03-14T13:45:12;98555.59;;;11.53;76.52
30897;BME280;64229;52.246;21.054;2023-03-14T13:47:38;98553.75;;;11.71;76.34
30897;BME280;64229;52.246;21.054;2023-03-14T13:50:05;98545.84;;;11.57;77.60
30897;BME280;64229;52.246;21.054;2023-03-14T13:52:32;98544.25;;;11.47;77.53
30897;BME280;64229;52.246;21.054;2023-03-14T13:55:01;98544.56;;;11.37;79.88
30897;BME280;64229;52.246;21.054;2023-03-14T13:57:43;98551.94;;;11.23;81.55
30897;BME280;64229;52.246;21.054;2023-03-14T14:00:18;98556.53;;;11.40;80.67
30897;BME280;64229;52.246;21.054;2023-03-14T14:02:44;98543.31;;;11.43;80.14
30897;BME280;64229;52.246;21.054;2023-03-14T14:05:12;98549.59;;;11.47;79.88
30897;BME280;64229;52.246;21.054;2023-03-14T14:07:39;98527.94;;;11.40;79.95